createdAt,value
2023-03-22T00:01:53.830Z,10.03
2023-03-22T00:06:55.476Z,10.22
2023-03-22T00:11:57.097Z,9.91
2023-03-22T00:16:58.825Z,9.96
2023-03-22T00:22:01.263Z,9.92
2023-03-22T00:27:03.649Z,10.06
2023-03-22T00:32:05.504Z,9.95
2023-03-22T00:37:08.196Z,9.94
2023-03-22T00:42:10.606Z,9.93
2023-03-22T00:47:12.433Z,9.43
2023-03-22T00:52:14.337Z,9.51
2023-03-22T00:57:16.312Z,9.68
2023-03-22T01:02:18.006Z,9.86
2023-03-22T01:07:21.633Z,9.98
2023-03-22T01:12:23.491Z,10.07
2023-03-22T01:17:25.147Z,9.85
2023-03-22T01:22:26.891Z,9.63
2023-03-22T01:27:28.602Z,9.87
2023-03-22T01:32:30.368Z,9.37
2023-03-22T01:37:32.784Z,9.47
2023-03-22T01:42:34.467Z,9.58
2023-03-22T01:47:36.503Z,9.57
2023-03-22T01:52:38.860Z,9.31
2023-03-22T01:57:42.707Z,9.45
2023-03-22T02:02:48.404Z,9.22
2023-03-22T02:07:50.976Z,9.36
2023-03-22T02:13:02.107Z,9.31
2023-03-22T02:18:29.211Z,9.42
2023-03-22T02:23:59.726Z,9.20
2023-03-22T02:29:16.212Z,9.35
2023-03-22T02:34:36.402Z,9.39
2023-03-22T02:39:50.028Z,9.35
2023-03-22T02:45:13.500Z,9.27
2023-03-22T02:50:18.292Z,9.02
2023-03-22T02:55:19.942Z,8.92
2023-03-22T03:00:21.809Z,8.98
2023-03-22T03:05:44.987Z,9.10
2023-03-22T03:10:47.934Z,8.89
2023-03-22T03:15:54.261Z,8.83
2023-03-22T03:21:02.815Z,8.37
2023-03-22T03:26:30.828Z,8.77
2023-03-22T03:31:52.042Z,8.91
2023-03-22T03:36:58.553Z,8.63
2023-03-22T03:42:01.946Z,8.72
2023-03-22T03:47:05.581Z,8.80
2023-03-22T03:52:07.211Z,8.78
2023-03-22T03:57:08.893Z,8.57
2023-03-22T04:02:10.775Z,8.60
2023-03-22T04:07:12.504Z,8.57
2023-03-22T04:12:14.164Z,8.44
2023-03-22T04:17:15.836Z,8.41
2023-03-22T04:22:18.522Z,8.50
2023-03-22T04:27:21.697Z,8.57
2023-03-22T04:32:23.769Z,8.80
2023-03-22T04:37:27.169Z,8.57
2023-03-22T04:42:28.921Z,8.68
2023-03-22T04:47:30.589Z,8.20
2023-03-22T04:52:32.335Z,8.70
2023-03-22T04:57:35.316Z,8.28
2023-03-22T05:02:41.479Z,8.33
2023-03-22T05:07:43.346Z,8.54
2023-03-22T05:12:45.084Z,8.51
2023-03-22T05:17:46.721Z,8.48
2023-03-22T05:22:50.747Z,8.55
2023-03-22T05:27:54.360Z,8.76
2023-03-22T05:33:00.623Z,8.66
2023-03-22T05:38:02.392Z,8.61
2023-03-22T05:43:04.081Z,8.56
2023-03-22T05:48:06.774Z,8.96
2023-03-22T05:53:08.668Z,8.53
2023-03-22T05:58:10.979Z,8.56
2023-03-22T06:03:13.086Z,8.79
2023-03-22T06:08:15.748Z,8.87
2023-03-22T06:13:18.582Z,8.52
2023-03-22T06:18:20.261Z,8.68
2023-03-22T06:23:21.963Z,8.80
2023-03-22T06:28:23.655Z,9.01
2023-03-22T06:33:25.480Z,9.12
2023-03-22T06:38:27.100Z,8.98
2023-03-22T06:43:28.830Z,8.89
2023-03-22T06:48:30.725Z,9.00
2023-03-22T06:53:32.345Z,9.07
2023-03-22T06:58:34.123Z,9.23
2023-03-22T07:03:35.964Z,9.19
2023-03-22T07:08:37.865Z,9.14
2023-03-22T07:13:39.836Z,9.02
2023-03-22T07:18:41.497Z,9.14
2023-03-22T07:23:43.219Z,9.24
2023-03-22T07:28:44.952Z,9.37
2023-03-22T07:33:46.574Z,9.57
2023-03-22T07:38:48.247Z,9.46
2023-03-22T07:43:56.670Z,9.63
2023-03-22T07:49:01.827Z,9.76
2023-03-22T07:54:04.460Z,9.83
2023-03-22T07:59:07.451Z,10.02
2023-03-22T08:04:09.456Z,11.08
2023-03-22T08:09:11.719Z,10.25
2023-03-22T08:14:13.369Z,10.18
2023-03-22T08:19:15.068Z,10.27
2023-03-22T08:24:16.744Z,10.36
2023-03-22T08:29:18.853Z,10.44
2023-03-22T08:34:20.962Z,12.13
2023-03-22T08:39:23.410Z,11.62
2023-03-22T08:44:26.249Z,11.09
2023-03-22T08:49:28.189Z,12.22
2023-03-22T08:54:33.712Z,12.00
2023-03-22T08:59:35.819Z,12.39
2023-03-22T09:04:37.478Z,11.87
2023-03-22T09:09:39.119Z,11.89
2023-03-22T09:14:40.776Z,11.48
2023-03-22T09:19:42.425Z,12.01
2023-03-22T09:24:44.320Z,12.17
2023-03-22T09:29:46.081Z,12.84
2023-03-22T09:34:48.299Z,12.69
2023-03-22T09:39:50.042Z,12.98
2023-03-22T09:44:52.738Z,12.84
2023-03-22T09:50:15.803Z,13.01
2023-03-22T09:55:19.425Z,12.86
2023-03-22T10:00:31.578Z,12.76
2023-03-22T10:05:39.217Z,12.66
2023-03-22T10:10:44.404Z,12.64
2023-03-22T10:15:52.312Z,13.53
2023-03-22T10:20:59.324Z,13.62
2023-03-22T10:26:03.656Z,13.63
2023-03-22T10:31:06.788Z,13.39
2023-03-22T10:36:14.022Z,13.95
2023-03-22T10:41:21.330Z,13.99
2023-03-22T10:46:27.313Z,14.46
2023-03-22T10:51:37.393Z,14.38
2023-03-22T10:56:39.040Z,14.39
2023-03-22T11:01:46.221Z,14.52
2023-03-22T11:06:55.595Z,14.46
2023-03-22T11:12:00.037Z,15.20
2023-03-22T11:17:10.220Z,15.45
2023-03-22T11:22:33.372Z,14.60
2023-03-22T11:27:36.554Z,15.03
2023-03-22T11:32:39.699Z,15.65
2023-03-22T11:37:47.002Z,14.79
2023-03-22T11:42:53.246Z,15.34
2023-03-22T11:48:01.658Z,15.33
2023-03-22T11:53:06.718Z,15.73
2023-03-22T11:58:08.386Z,15.39
2023-03-22T12:03:24.347Z,15.82
2023-03-22T12:08:36.198Z,15.72
2023-03-22T12:13:37.769Z,16.01
2023-03-22T12:18:50.658Z,15.71
2023-03-22T12:23:57.722Z,16.36
2023-03-22T12:29:04.090Z,16.06
2023-03-22T12:34:15.538Z,16.93
2023-03-22T12:39:28.772Z,17.23
2023-03-22T12:44:39.316Z,16.31
2023-03-22T12:49:55.020Z,17.08
2023-03-22T12:54:59.355Z,16.58
2023-03-22T13:00:13.739Z,17.31
2023-03-22T13:05:17.962Z,17.07
2023-03-22T13:10:36.332Z,16.96
2023-03-22T13:15:42.641Z,17.18
2023-03-22T13:21:04.277Z,18.04
2023-03-22T13:26:06.655Z,18.11
2023-03-22T13:31:36.147Z,18.14
2023-03-22T13:36:38.171Z,18.56
2023-03-22T13:41:40.124Z,17.81
2023-03-22T13:46:42.248Z,17.98
2023-03-22T13:51:45.288Z,18.15
2023-03-22T13:56:57.327Z,18.40
2023-03-22T14:02:22.424Z,18.41
2023-03-22T14:07:40.192Z,18.73
2023-03-22T14:12:53.839Z,18.53
2023-03-22T14:18:17.026Z,18.57
